Time;durP1;ratioP1;P1;durP2;ratioP2;P2;SDS_P1;SDS_P2;PMS_P1;PMS_P2;Temp;Humidity;BMP_temperature;BMP_pressure;BME280_temperature;BME280_humidity;BME280_pressure;Samples;Min_cycle;Max_cycle;Signal;HPM_P1;HPM_P2
2021/12/16 00:01:50;;;;;;;6.95;5.47;;;;;;;4.89;84.38;101307.22;4946715;28;20474;-78
2021/12/16 00:09:56;;;;;;;5.15;4.65;;;;;;;4.86;84.00;101304.63;4947104;28;20216;-78
2021/12/16 00:34:11;;;;;;;7.57;5.32;;;;;;;4.83;84.26;101315.09;4915919;29;20221;-77
2021/12/16 00:36:40;;;;;;;7.90;5.38;;;;;;;4.86;84.30;101313.31;4922571;29;20248;-77
2021/12/16 00:39:15;;;;;;;6.15;5.35;;;;;;;4.88;84.21;101308.94;4936971;28;20280;-77
2021/12/16 00:41:43;;;;;;;5.57;4.93;;;;;;;4.89;84.42;101304.63;4928087;29;20252;-77
2021/12/16 00:46:58;;;;;;;7.80;5.38;;;;;;;4.91;84.36;101302.84;4925493;29;20540;-77
2021/12/16 00:54:43;;;;;;;6.15;4.70;;;;;;;4.81;84.52;101298.66;4944607;29;20634;-76
2021/12/16 00:57:13;;;;;;;5.53;4.90;;;;;;;4.76;84.55;101296.09;4940781;29;20625;-76
2021/12/16 00:59:43;;;;;;;5.43;4.93;;;;;;;4.75;84.76;101291.78;4934672;29;20881;-76
2021/12/16 01:35:01;;;;;;;3.22;2.92;;;;;;;4.80;84.99;101313.38;4929491;29;20465;-76
2021/12/16 01:40:29;;;;;;;4.03;3.72;;;;;;;4.74;84.99;101316.06;4930503;29;20295;-76
2021/12/16 01:51:22;;;;;;;4.50;3.38;;;;;;;4.72;85.00;101322.16;4924027;29;20205;-76
2021/12/16 01:56:54;;;;;;;5.50;3.83;;;;;;;4.71;84.63;101334.34;4912470;29;20601;-76
2021/12/16 01:59:22;;;;;;;6.40;3.35;;;;;;;4.69;84.67;101322.22;4922846;29;20196;-77
2021/12/16 02:01:48;;;;;;;3.42;3.08;;;;;;;4.76;84.62;101313.47;4921644;29;20491;-77
2021/12/16 02:04:41;;;;;;;3.83;3.37;;;;;;;4.75;84.58;101316.94;4941266;29;20225;-77
2021/12/16 02:07:11;;;;;;;4.40;3.58;;;;;;;4.74;84.28;101315.22;4921176;29;20229;-76
2021/12/16 02:09:42;;;;;;;3.50;3.20;;;;;;;4.72;84.25;101317.81;4913197;29;20197;-76
2021/12/16 02:31:23;;;;;;;3.88;2.53;;;;;;;4.66;84.41;101316.16;4942791;29;20216;-77
2021/12/16 02:36:43;;;;;;;3.72;3.38;;;;;;;4.66;84.35;101313.56;4944451;29;20208;-76
2021/12/16 02:39:13;;;;;;;3.30;3.00;;;;;;;4.67;84.34;101304.00;4934398;29;20224;-77
2021/12/16 02:41:42;;;;;;;3.10;2.78;;;;;;;4.68;84.14;101304.88;4942061;29;20233;-77
2021/12/16 02:49:39;;;;;;;3.35;3.05;;;;;;;4.60;84.05;101295.41;4928311;29;20216;-75
2021/12/16 02:52:05;;;;;;;3.05;2.80;;;;;;;4.62;83.99;101303.22;4927999;29;20622;-76
2021/12/16 02:54:31;;;;;;;2.88;2.55;;;;;;;4.60;83.94;101297.16;4939501;29;20292;-76
2021/12/16 02:56:57;;;;;;;3.57;3.23;;;;;;;4.58;83.84;101307.56;4908910;29;20674;-76
2021/12/16 02:59:27;;;;;;;2.95;2.05;;;;;;;4.58;83.75;101311.94;4921501;29;20368;-76
2021/12/16 03:01:55;;;;;;;4.75;3.58;;;;;;;4.69;83.60;101304.00;4918746;29;20494;-77
2021/12/16 03:04:26;;;;;;;3.38;3.08;;;;;;;4.68;83.74;101305.75;4931521;29;21035;-76
2021/12/16 03:06:54;;;;;;;4.00;2.53;;;;;;;4.65;83.46;101301.44;4930747;29;20585;-76
2021/12/16 03:09:37;;;;;;;2.78;2.55;;;;;;;4.63;82.98;101300.59;4926293;29;20581;-76
2021/12/16 03:14:54;;;;;;;3.45;3.03;;;;;;;4.63;83.66;101297.97;4908793;29;20331;-76
2021/12/16 03:17:28;;;;;;;2.95;2.30;;;;;;;4.64;83.15;101304.94;4909084;29;20229;-76
2021/12/16 03:22:36;;;;;;;3.37;3.07;;;;;;;4.64;83.27;101304.94;4917930;29;20240;-76
2021/12/16 03:25:18;;;;;;;3.42;3.08;;;;;;;4.62;82.93;101306.69;4909695;29;20808;-76
2021/12/16 03:30:43;;;;;;;3.47;3.15;;;;;;;4.65;83.17;101306.63;4927529;29;20869;-76
2021/12/16 03:33:54;;;;;;;3.10;2.40;;;;;;;4.65;82.81;101293.63;4910651;29;20206;-76
2021/12/16 03:38:57;;;;;;;3.47;2.63;;;;;;;4.59;83.15;101301.50;4914031;29;20746;-76
2021/12/16 03:41:24;;;;;;;6.05;2.83;;;;;;;4.58;83.70;101299.78;4918766;29;20233;-76
2021/12/16 03:43:51;;;;;;;4.07;2.85;;;;;;;4.59;83.66;101301.50;4919004;29;20760;-76
2021/12/16 03:46:25;;;;;;;3.75;2.63;;;;;;;4.60;83.55;101299.78;4918105;29;20289;-77
2021/12/16 03:49:03;;;;;;;2.90;2.60;;;;;;;4.60;83.45;101313.63;4906257;29;20210;-76
2021/12/16 03:51:42;;;;;;;2.63;2.42;;;;;;;4.60;83.56;101318.84;4923048;29;20229;-76
2021/12/16 03:54:19;;;;;;;4.55;2.70;;;;;;;4.60;83.64;101313.63;4904194;29;20209;-76
2021/12/16 03:56:48;;;;;;;2.97;2.45;;;;;;;4.60;83.58;101307.56;4943412;28;20209;-76
2021/12/16 03:59:19;;;;;;;3.00;2.50;;;;;;;4.61;83.30;101304.09;4925181;29;20561;-77
2021/12/16 04:02:16;;;;;;;3.60;3.30;;;;;;;4.75;83.39;101309.13;4920737;29;21238;-76
2021/12/16 04:04:46;;;;;;;3.58;3.10;;;;;;;4.73;83.23;101313.50;4911297;29;20556;-77
2021/12/16 04:07:12;;;;;;;3.10;2.53;;;;;;;4.69;83.25;101298.78;4930277;29;20238;-77
2021/12/16 04:09:58;;;;;;;2.58;2.35;;;;;;;4.67;83.24;101306.59;4922458;29;20224;-75
2021/12/16 04:12:27;;;;;;;4.03;3.10;;;;;;;4.64;83.21;101302.31;4918214;29;20246;-76
2021/12/16 04:14:57;;;;;;;3.13;2.55;;;;;;;4.65;83.51;101311.00;4915719;29;20215;-75
2021/12/16 04:17:26;;;;;;;5.45;3.30;;;;;;;4.64;83.45;101319.66;4942684;29;20210;-76
2021/12/16 04:19:58;;;;;;;2.78;2.25;;;;;;;4.63;83.24;101323.16;4915546;29;20210;-76
2021/12/16 04:22:30;;;;;;;2.58;2.15;;;;;;;4.60;83.11;101318.00;4917674;29;20226;-77
2021/12/16 04:25:03;;;;;;;3.65;2.85;;;;;;;4.55;83.09;101320.63;4918975;29;20256;-76
2021/12/16 04:27:31;;;;;;;2.60;2.40;;;;;;;4.55;83.18;101324.97;4921750;29;21049;-76
2021/12/16 04:29:57;;;;;;;3.13;2.83;;;;;;;4.53;83.02;101330.19;4917750;29;20214;-76
2021/12/16 04:32:23;;;;;;;4.45;2.35;;;;;;;4.52;82.76;101333.69;4944527;29;20229;-76
2021/12/16 04:34:49;;;;;;;7.70;2.90;;;;;;;4.49;82.93;101331.13;4910343;29;20191;-77
2021/12/16 04:37:17;;;;;;;2.90;2.40;;;;;;;4.46;83.02;101332.91;4918373;29;20202;-76
2021/12/16 04:39:45;;;;;;;3.58;2.60;;;;;;;4.42;82.75;101335.50;4917829;29;20670;-77
2021/12/16 04:42:13;;;;;;;2.58;2.10;;;;;;;4.38;82.76;101327.78;4916752;29;20723;-77
2021/12/16 04:44:41;;;;;;;2.60;2.40;;;;;;;4.34;82.69;101326.91;4918913;29;20225;-76
2021/12/16 04:47:10;;;;;;;2.80;2.60;;;;;;;4.32;82.93;101346.03;4914484;29;20233;-77
2021/12/16 04:49:36;;;;;;;2.40;2.00;;;;;;;4.27;82.89;101343.50;4913831;29;20266;-76
2021/12/16 04:52:07;;;;;;;2.17;2.00;;;;;;;4.25;82.67;101336.56;4909614;29;20792;-76
2021/12/16 04:54:33;;;;;;;2.13;1.92;;;;;;;4.23;82.57;101344.38;4911289;29;20242;-76
2021/12/16 04:57:00;;;;;;;2.50;1.83;;;;;;;4.21;82.57;101344.41;4917423;29;20233;-77
2021/12/16 04:59:28;;;;;;;3.17;2.30;;;;;;;4.18;82.79;101341.81;4910509;29;20591;-76
2021/12/16 05:02:03;;;;;;;5.95;2.40;;;;;;;4.13;82.54;101346.22;4938742;28;20305;-77
2021/12/16 05:04:58;;;;;;;2.00;1.80;;;;;;;4.08;82.52;101332.41;4912548;29;20221;-76
2021/12/16 05:07:24;;;;;;;4.60;2.20;;;;;;;4.05;82.74;101334.16;4921324;29;20222;-77
2021/12/16 05:10:14;;;;;;;3.03;2.25;;;;;;;4.01;82.68;101341.13;4926695;29;20218;-77
2021/12/16 05:12:54;;;;;;;4.50;2.38;;;;;;;3.98;82.49;101338.56;4926399;29;20257;-77
2021/12/16 05:15:22;;;;;;;4.35;2.47;;;;;;;3.94;82.60;101339.44;4929074;29;20236;-77
2021/12/16 05:17:51;;;;;;;2.60;2.40;;;;;;;3.90;82.75;101332.56;4926965;28;20212;-77
2021/12/16 05:20:25;;;;;;;2.97;2.25;;;;;;;3.86;82.52;101338.63;4920572;29;20293;-76
2021/12/16 05:28:16;;;;;;;2.00;1.90;;;;;;;3.72;82.42;101347.41;4928417;29;20296;-77
2021/12/16 05:30:42;;;;;;;3.75;2.00;;;;;;;3.69;82.71;101342.25;4924804;29;20209;-77
2021/12/16 05:33:09;;;;;;;2.55;2.35;;;;;;;3.67;82.76;101346.59;4920100;29;20221;-77
2021/12/16 05:35:34;;;;;;;2.75;2.08;;;;;;;3.68;82.96;101355.25;4934607;29;20218;-77
2021/12/16 05:38:01;;;;;;;2.37;1.90;;;;;;;3.69;82.86;101352.63;4931761;28;20210;-76
2021/12/16 05:40:28;;;;;;;2.50;2.30;;;;;;;3.72;82.89;101357.81;4911289;29;20553;-77
2021/12/16 05:43:22;;;;;;;2.42;2.22;;;;;;;3.75;82.87;101359.53;4926637;29;20245;-77
2021/12/16 05:45:47;;;;;;;2.72;2.47;;;;;;;3.79;82.88;101360.38;4925982;29;20233;-76
2021/12/16 05:48:16;;;;;;;2.47;2.20;;;;;;;3.81;82.87;101362.09;4910462;29;20202;-77
2021/12/16 05:50:47;;;;;;;3.60;2.53;;;;;;;3.84;83.12;101366.41;4925295;29;20198;-77
2021/12/16 05:53:13;;;;;;;4.93;3.28;;;;;;;3.87;82.84;101375.03;4924186;29;20228;-77
2021/12/16 05:55:39;;;;;;;3.40;3.10;;;;;;;3.89;83.03;101375.00;4911467;29;20584;-77
2021/12/16 05:58:19;;;;;;;4.70;3.63;;;;;;;3.91;83.17;101379.31;4920696;29;20209;-76
2021/12/16 06:00:48;;;;;;;3.35;3.03;;;;;;;3.91;82.88;101378.47;4925531;29;20341;-77
2021/12/16 06:03:14;;;;;;;3.05;2.75;;;;;;;3.92;82.88;101390.59;4920228;29;20243;-76
2021/12/16 06:05:40;;;;;;;4.13;2.70;;;;;;;3.92;83.13;101393.22;4915298;29;20261;-76
2021/12/16 06:08:07;;;;;;;3.60;2.85;;;;;;;3.92;83.05;101396.66;4937812;29;20638;-77
2021/12/16 06:13:06;;;;;;;3.58;2.80;;;;;;;3.79;83.64;101401.97;4937320;29;20267;-76
2021/12/16 06:15:56;;;;;;;2.88;2.55;;;;;;;3.72;83.71;101406.31;4934189;28;20193;-77
2021/12/16 06:27:23;;;;;;;2.95;2.22;;;;;;;3.74;83.94;101418.44;4908580;29;20249;-77
2021/12/16 06:29:46;;;;;;;2.38;1.83;;;;;;;3.77;83.92;101421.00;4932248;28;20221;-77
2021/12/16 06:32:13;;;;;;;3.17;2.65;;;;;;;3.77;83.77;101413.22;4934805;29;20229;-76
2021/12/16 06:34:39;;;;;;;2.85;2.65;;;;;;;3.77;83.82;101415.81;4939314;29;20209;-77
2021/12/16 06:37:06;;;;;;;3.20;2.90;;;;;;;3.79;83.66;101421.03;4927628;29;20558;-77
2021/12/16 06:39:31;;;;;;;2.08;1.88;;;;;;;3.78;83.54;101414.09;4926158;29;20633;-76
2021/12/16 06:42:19;;;;;;;2.28;2.08;;;;;;;3.76;83.50;101419.31;4937012;29;20235;-76
2021/12/16 06:44:55;;;;;;;2.65;2.53;;;;;;;3.77;83.45;101423.63;4923218;29;20215;-77
2021/12/16 06:47:28;;;;;;;2.85;2.60;;;;;;;3.74;83.18;101418.44;4936854;29;20307;-75
2021/12/16 06:49:55;;;;;;;2.08;1.77;;;;;;;3.71;83.12;101415.88;4937626;29;20223;-76
2021/12/16 06:52:26;;;;;;;4.82;2.08;;;;;;;3.66;82.75;101427.16;4942771;29;20240;-77
2021/12/16 06:57:55;;;;;;;3.53;2.05;;;;;;;3.49;82.76;101425.53;4874955;29;20214;-76
2021/12/16 07:00:33;;;;;;;2.00;1.77;;;;;;;3.44;82.74;101435.06;4932241;29;20232;-75
2021/12/16 07:03:01;;;;;;;3.78;2.30;;;;;;;3.41;82.90;101434.25;4920521;29;20271;-77
2021/12/16 07:05:36;;;;;;;2.58;1.90;;;;;;;3.39;82.85;101441.16;4957275;28;20241;-75
2021/12/16 07:08:05;;;;;;;2.00;1.80;;;;;;;3.39;82.65;101441.16;4940066;29;20213;-76
2021/12/16 07:10:30;;;;;;;2.80;2.53;;;;;;;3.38;82.56;101440.31;4943746;29;20714;-76
2021/12/16 07:13:05;;;;;;;7.37;6.80;;;;;;;3.41;82.49;101436.84;4934286;29;20384;-76
2021/12/16 07:15:31;;;;;;;2.20;1.73;;;;;;;3.42;82.38;101436.81;4945442;29;20457;-75
2021/12/16 07:17:57;;;;;;;3.33;2.60;;;;;;;3.44;82.32;101432.47;4935032;28;20214;-76
2021/12/16 07:20:28;;;;;;;2.13;1.90;;;;;;;3.45;82.22;101447.19;4937682;29;20361;-76
2021/12/16 07:22:56;;;;;;;1.50;1.40;;;;;;;3.47;82.36;101452.38;4936400;29;20485;-77
2021/12/16 07:25:21;;;;;;;1.60;1.50;;;;;;;3.48;81.85;101443.72;4938665;29;20221;-75
2021/12/16 07:27:47;;;;;;;1.57;1.40;;;;;;;3.47;81.94;101448.03;4938923;29;20244;-76
2021/12/16 07:30:15;;;;;;;2.10;1.87;;;;;;;3.49;82.19;101450.66;4938929;29;20283;-76
2021/12/16 07:32:41;;;;;;;2.20;1.90;;;;;;;3.49;81.86;101456.69;4935682;29;20607;-75
2021/12/16 07:35:10;;;;;;;1.97;1.80;;;;;;;3.51;82.11;101441.09;4928970;29;20205;-77
2021/12/16 07:37:36;;;;;;;2.50;2.08;;;;;;;3.53;81.88;101449.75;4943497;29;20976;-77
2021/12/16 07:40:07;;;;;;;6.23;1.87;;;;;;;3.58;81.98;101458.38;4937951;29;20232;-75
2021/12/16 07:42:44;;;;;;;3.15;2.00;;;;;;;3.62;81.65;101454.03;4928209;29;20221;-74
2021/12/16 07:45:11;;;;;;;2.38;1.73;;;;;;;3.62;81.75;101462.72;4932900;29;20205;-76
2021/12/16 07:47:37;;;;;;;3.63;3.00;;;;;;;3.64;81.72;101460.09;4933919;29;20220;-76
2021/12/16 07:50:04;;;;;;;2.43;1.97;;;;;;;3.64;81.60;101457.47;4940924;29;20216;-76
2021/12/16 07:52:33;;;;;;;1.52;1.42;;;;;;;3.64;81.85;101452.28;4938292;29;20332;-77
2021/12/16 07:55:00;;;;;;;2.92;2.40;;;;;;;3.64;81.66;101460.94;4939198;29;20279;-77
2021/12/16 07:57:27;;;;;;;4.15;2.35;;;;;;;3.60;81.55;101467.03;4941526;29;20208;-77
2021/12/16 07:59:53;;;;;;;2.60;2.08;;;;;;;3.54;81.03;101473.13;4939590;28;20205;-78
2021/12/16 08:02:20;;;;;;;2.70;2.30;;;;;;;3.47;81.27;101470.56;4947009;28;20224;-77
2021/12/16 08:04:47;;;;;;;2.60;2.40;;;;;;;3.44;81.29;101476.63;4946945;29;20221;-75
2021/12/16 08:07:18;;;;;;;3.75;2.67;;;;;;;3.43;81.41;101472.31;4943526;29;20206;-77
2021/12/16 08:09:44;;;;;;;2.45;2.17;;;;;;;3.44;81.32;101475.78;4946499;29;20208;-76
2021/12/16 08:12:13;;;;;;;3.50;2.10;;;;;;;3.45;81.25;101477.50;4935873;29;20237;-76
2021/12/16 08:14:40;;;;;;;3.80;3.17;;;;;;;3.48;81.50;101480.06;4937261;29;20469;-76
2021/12/16 08:17:07;;;;;;;2.70;2.10;;;;;;;3.47;81.16;101478.38;4940441;29;20217;-76
2021/12/16 08:19:33;;;;;;;4.22;1.75;;;;;;;3.48;81.27;101472.28;4943630;28;20674;-77
2021/12/16 08:21:58;;;;;;;2.30;2.15;;;;;;;3.51;81.32;101472.25;4942340;29;20233;-77
2021/12/16 08:24:24;;;;;;;2.33;1.97;;;;;;;3.52;81.19;101474.00;4943453;29;20434;-76
2021/12/16 08:26:52;;;;;;;2.50;2.27;;;;;;;3.53;80.96;101481.78;4944698;29;20225;-77
2021/12/16 08:29:18;;;;;;;2.35;2.10;;;;;;;3.57;81.06;101487.84;4941385;28;20698;-77
2021/12/16 08:31:44;;;;;;;3.25;2.42;;;;;;;3.69;81.17;101482.56;4936876;29;20492;-76
2021/12/16 08:34:11;;;;;;;3.05;2.38;;;;;;;3.70;80.71;101484.31;4947023;29;20221;-77
2021/12/16 08:36:37;;;;;;;2.20;2.00;;;;;;;3.67;80.77;101486.94;4943377;28;20208;-76
2021/12/16 08:39:07;;;;;;;6.30;2.40;;;;;;;3.68;80.74;101491.25;4941861;29;20252;-75
2021/12/16 08:41:41;;;;;;;2.65;2.40;;;;;;;3.72;80.89;101487.75;4940367;29;20337;-76
2021/12/16 08:44:07;;;;;;;2.95;2.55;;;;;;;3.77;80.71;101498.13;4944674;29;20213;-77
2021/12/16 08:46:36;;;;;;;2.60;2.13;;;;;;;3.80;80.44;101495.50;4945366;29;20236;-76
2021/12/16 08:49:03;;;;;;;2.03;1.92;;;;;;;3.86;80.47;101492.00;4942370;29;20214;-77
2021/12/16 08:51:40;;;;;;;2.67;2.03;;;;;;;3.89;80.51;101505.88;4938463;29;20222;-77
2021/12/16 08:54:07;;;;;;;2.15;2.05;;;;;;;3.89;80.30;101492.00;4939822;29;20224;-76
2021/12/16 08:56:33;;;;;;;2.88;2.10;;;;;;;3.90;80.18;101498.94;4942539;29;20194;-76
2021/12/16 08:59:00;;;;;;;4.13;2.15;;;;;;;3.93;80.40;101502.38;4942039;29;20201;-78
2021/12/16 09:01:29;;;;;;;3.28;2.40;;;;;;;3.95;80.05;101503.22;4944314;29;20312;-77
2021/12/16 09:03:56;;;;;;;3.83;3.50;;;;;;;4.04;80.36;101506.66;4945402;29;20625;-77
2021/12/16 09:06:23;;;;;;;2.92;2.63;;;;;;;4.14;79.96;101513.53;4947066;29;20213;-77
2021/12/16 09:08:49;;;;;;;3.40;2.80;;;;;;;4.23;80.18;101516.06;4941442;29;20217;-77
2021/12/16 09:11:20;;;;;;;2.70;2.50;;;;;;;4.31;79.71;101516.88;4945358;28;20216;-76
2021/12/16 09:13:47;;;;;;;3.85;2.92;;;;;;;4.35;79.46;101520.31;4944879;29;20646;-75
2021/12/16 09:16:16;;;;;;;2.85;2.58;;;;;;;4.37;79.47;101519.41;4946365;29;20201;-76
2021/12/16 09:18:42;;;;;;;3.25;2.30;;;;;;;4.39;79.46;101520.28;4938838;29;20213;-76
2021/12/16 09:21:11;;;;;;;3.07;2.43;;;;;;;4.44;79.70;101534.13;4939150;29;20285;-76
2021/12/16 09:23:40;;;;;;;3.60;2.70;;;;;;;4.48;79.37;101537.53;4940821;29;20507;-76
2021/12/16 09:26:06;;;;;;;4.35;2.83;;;;;;;4.53;79.33;101545.31;4936551;29;20228;-77
2021/12/16 09:28:32;;;;;;;2.22;2.00;;;;;;;4.56;79.34;101546.16;4938168;29;20210;-76
2021/12/16 09:30:58;;;;;;;3.33;3.03;;;;;;;4.60;79.28;101541.81;4941502;28;20281;-76
2021/12/16 09:33:25;;;;;;;3.33;2.23;;;;;;;4.62;79.41;101547.88;4943332;29;20284;-76
2021/12/16 09:35:55;;;;;;;4.82;3.53;;;;;;;4.64;78.99;101549.59;4938423;29;20528;-76
2021/12/16 09:38:22;;;;;;;2.33;2.20;;;;;;;4.65;78.92;101553.91;4930945;29;20198;-76
2021/12/16 09:40:52;;;;;;;2.58;2.38;;;;;;;4.66;79.13;101550.41;4946222;29;20276;-76
2021/12/16 09:43:26;;;;;;;4.07;3.50;;;;;;;4.68;79.25;101545.22;4945085;29;20226;-76
2021/12/16 09:45:55;;;;;;;3.35;3.05;;;;;;;4.72;79.00;101543.44;4935982;29;20231;-76
2021/12/16 09:48:21;;;;;;;3.45;2.75;;;;;;;4.78;78.79;101549.47;4943250;28;20232;-76
2021/12/16 09:50:46;;;;;;;6.70;3.35;;;;;;;4.82;78.79;101542.50;4941624;29;20579;-76
2021/12/16 09:53:12;;;;;;;4.30;2.87;;;;;;;4.85;78.52;101548.53;4937389;29;20221;-77
2021/12/16 09:55:39;;;;;;;4.35;3.95;;;;;;;4.86;78.45;101533.75;4940736;29;20284;-76
2021/12/16 09:58:05;;;;;;;5.00;3.30;;;;;;;4.89;78.15;101525.94;4941116;28;20209;-76
2021/12/16 10:00:32;;;;;;;4.28;3.10;;;;;;;4.94;78.28;101533.69;4937658;29;20499;-76
2021/12/16 10:03:01;;;;;;;4.82;3.67;;;;;;;4.97;78.12;101529.34;4939413;29;20255;-76
2021/12/16 10:05:27;;;;;;;5.00;4.50;;;;;;;5.01;77.76;101525.81;4939875;29;20568;-76
2021/12/16 10:07:54;;;;;;;8.05;4.68;;;;;;;5.03;78.07;101521.44;4938413;29;20200;-76
2021/12/16 10:10:24;;;;;;;5.65;3.60;;;;;;;5.05;78.00;101524.91;4940134;29;20264;-76
2021/12/16 10:12:53;;;;;;;4.30;3.03;;;;;;;5.08;77.98;101513.59;4938028;29;20263;-76
2021/12/16 10:18:06;;;;;;;3.03;2.72;;;;;;;5.05;77.93;101506.69;4937878;29;20215;-76
2021/12/16 10:20:35;;;;;;;4.80;3.55;;;;;;;5.02;78.07;101511.94;4937001;29;20303;-75
2021/12/16 10:23:15;;;;;;;4.80;4.40;;;;;;;5.01;77.82;101518.00;4937837;29;20221;-76
2021/12/16 10:25:44;;;;;;;3.25;2.95;;;;;;;5.04;78.12;101512.75;4936092;29;20756;-76
2021/12/16 10:28:23;;;;;;;5.45;3.50;;;;;;;5.06;78.04;101511.00;4940552;29;20205;-76
2021/12/16 10:31:05;;;;;;;4.75;3.35;;;;;;;5.06;78.10;101507.53;4933994;29;20307;-76
2021/12/16 10:33:35;;;;;;;6.95;3.78;;;;;;;5.12;78.46;101514.41;4943100;28;20236;-77
2021/12/16 10:36:07;;;;;;;4.70;4.18;;;;;;;5.16;78.29;101516.09;4941127;29;20209;-77
2021/12/16 10:38:40;;;;;;;4.32;3.92;;;;;;;5.15;78.10;101515.25;4938589;29;20228;-74
2021/12/16 10:41:08;;;;;;;3.67;3.38;;;;;;;5.18;78.72;101514.34;4937964;29;20212;-76
2021/12/16 10:43:38;;;;;;;5.40;4.43;;;;;;;5.19;78.41;101516.09;4940096;29;20201;-75
2021/12/16 10:46:16;;;;;;;4.03;3.55;;;;;;;5.18;78.57;101515.22;4936760;29;20225;-76
2021/12/16 10:48:54;;;;;;;5.75;4.20;;;;;;;5.20;78.54;101518.66;4941403;28;20275;-76
2021/12/16 10:51:50;;;;;;;3.90;3.60;;;;;;;5.23;78.73;101520.38;4932803;29;20487;-76
2021/12/16 10:54:31;;;;;;;3.97;3.58;;;;;;;5.26;78.56;101534.22;4940085;29;20213;-77
2021/12/16 10:57:08;;;;;;;4.03;3.63;;;;;;;5.27;78.36;101524.69;4933331;29;20193;-77
2021/12/16 10:59:39;;;;;;;4.53;3.25;;;;;;;5.27;78.55;101516.88;4938000;29;20206;-76
2021/12/16 11:02:15;;;;;;;3.58;3.28;;;;;;;5.28;78.58;101514.22;4934509;29;20252;-75
2021/12/16 11:04:47;;;;;;;4.85;3.25;;;;;;;5.31;78.41;101510.72;4940715;29;20303;-76
2021/12/16 11:07:31;;;;;;;7.32;4.95;;;;;;;5.32;78.36;101500.31;4940712;29;20735;-76
2021/12/16 11:10:02;;;;;;;7.07;5.00;;;;;;;5.31;78.58;101508.97;4938927;29;20240;-76
2021/12/16 11:12:36;;;;;;;5.82;4.45;;;;;;;5.34;78.46;101500.28;4938072;28;20754;-75
2021/12/16 11:15:05;;;;;;;4.68;3.28;;;;;;;5.38;78.54;101507.19;4943010;29;20217;-75
2021/12/16 11:17:48;;;;;;;6.05;4.72;;;;;;;5.42;78.37;101508.84;4933412;29;20261;-76
2021/12/16 11:20:17;;;;;;;5.50;4.45;;;;;;;5.44;78.22;101501.88;4940618;29;20431;-76
2021/12/16 11:22:43;;;;;;;4.28;3.38;;;;;;;5.46;78.33;101507.09;4938765;29;20316;-76
2021/12/16 11:25:28;;;;;;;5.20;3.47;;;;;;;5.49;78.31;101500.09;4938605;29;20324;-76
2021/12/16 11:28:07;;;;;;;5.10;4.45;;;;;;;5.53;78.45;101498.31;4919317;29;20833;-76
2021/12/16 11:31:15;;;;;;;7.85;6.15;;;;;;;5.53;78.18;101499.16;4938686;29;20197;-75
2021/12/16 11:33:54;;;;;;;7.55;6.35;;;;;;;5.53;78.06;101493.94;4868514;29;20719;-77
2021/12/16 11:36:43;;;;;;;7.88;5.47;;;;;;;5.54;77.66;101492.22;4927655;29;20224;-76
2021/12/16 11:39:20;;;;;;;4.28;3.40;;;;;;;5.55;78.24;101484.38;4938094;29;20529;-77
2021/12/16 11:41:56;;;;;;;5.18;3.92;;;;;;;5.60;77.70;101492.13;4940137;29;20240;-76
2021/12/16 11:44:29;;;;;;;3.88;3.38;;;;;;;5.62;77.91;101485.16;4938174;29;20216;-76
2021/12/16 11:47:15;;;;;;;4.32;3.92;;;;;;;5.65;78.00;101494.69;4936466;29;20825;-77
2021/12/16 11:49:47;;;;;;;5.22;4.72;;;;;;;5.67;78.28;101483.38;4938823;29;20415;-76
2021/12/16 11:52:35;;;;;;;5.15;3.90;;;;;;;5.66;77.89;101493.81;4934577;29;20390;-76
2021/12/16 11:55:09;;;;;;;7.00;4.30;;;;;;;5.61;78.38;101491.25;4938950;29;20663;-76
2021/12/16 11:57:38;;;;;;;5.30;3.92;;;;;;;5.62;78.56;101495.59;4938022;29;20244;-76
2021/12/16 12:00:09;;;;;;;6.90;4.85;;;;;;;5.62;78.64;101492.13;4934756;29;20342;-77
2021/12/16 12:02:42;;;;;;;4.15;3.67;;;;;;;5.63;77.97;101493.84;4935902;29;20228;-76
2021/12/16 12:05:31;;;;;;;6.80;4.50;;;;;;;5.64;78.10;101496.41;4937234;29;20235;-76
2021/12/16 12:07:58;;;;;;;5.88;4.00;;;;;;;5.62;77.94;101487.78;4943268;29;20303;-76
2021/12/16 12:11:00;;;;;;;5.45;4.90;;;;;;;5.61;78.40;101498.22;4915581;29;20194;-76
2021/12/16 12:13:33;;;;;;;5.15;4.57;;;;;;;5.59;78.28;101494.75;4970192;23;20744;-86
2021/12/16 12:16:21;;;;;;;7.47;4.90;;;;;;;5.58;77.97;101496.50;4970967;28;20193;-86
2021/12/16 12:19:01;;;;;;;3.80;3.40;;;;;;;5.63;78.24;101494.69;4968906;28;20196;-85
2021/12/16 12:21:36;;;;;;;4.82;4.40;;;;;;;5.66;78.34;101492.06;4956265;28;20211;-85
2021/12/16 12:24:11;;;;;;;5.35;4.30;;;;;;;5.70;78.36;101490.28;4964083;28;20589;-86
2021/12/16 12:26:49;;;;;;;4.82;4.25;;;;;;;5.72;78.01;101483.28;4961695;28;20221;-86
2021/12/16 12:29:19;;;;;;;6.90;6.22;;;;;;;5.74;77.82;101485.00;4963822;28;20204;-86
2021/12/16 12:31:49;;;;;;;6.20;4.95;;;;;;;5.86;78.28;101491.81;4964552;28;20511;-86
2021/12/16 12:34:16;;;;;;;9.13;5.43;;;;;;;5.84;78.29;101483.13;4968474;28;20696;-86
2021/12/16 12:36:42;;;;;;;5.28;4.75;;;;;;;5.86;78.30;101478.75;4965755;28;20232;-86
2021/12/16 12:39:12;;;;;;;5.82;4.65;;;;;;;5.87;78.14;101475.25;4962526;28;20208;-87
2021/12/16 12:41:38;;;;;;;4.22;3.60;;;;;;;5.81;77.95;101475.34;4962051;28;20208;-86
2021/12/16 12:44:05;;;;;;;4.60;4.20;;;;;;;5.78;77.89;101470.19;4962534;28;20204;-86
2021/12/16 12:46:36;;;;;;;4.05;3.65;;;;;;;5.79;77.90;101471.91;4934006;28;20558;-85
2021/12/16 12:49:08;;;;;;;5.72;4.03;;;;;;;5.80;77.83;101471.00;4927339;28;20276;-85
2021/12/16 12:51:39;;;;;;;5.55;3.65;;;;;;;5.80;78.13;101475.38;4940455;28;20536;-86
2021/12/16 12:54:22;;;;;;;5.00;4.53;;;;;;;5.79;77.83;101461.47;4928821;29;20210;-85
2021/12/16 12:56:50;;;;;;;5.53;3.67;;;;;;;5.81;78.28;101461.47;4928342;28;20209;-85
2021/12/16 12:59:16;;;;;;;5.95;3.83;;;;;;;5.85;78.38;101463.97;4940243;29;20209;-86
2021/12/16 13:01:51;;;;;;;8.30;4.20;;;;;;;5.86;78.14;101463.13;4933003;28;20392;-86
2021/12/16 13:04:27;;;;;;;5.00;3.30;;;;;;;5.86;78.15;101463.13;4933227;29;20460;-85
2021/12/16 13:07:12;;;;;;;4.40;3.63;;;;;;;5.85;77.91;101476.16;4939831;29;20229;-85
2021/12/16 13:09:48;;;;;;;4.57;3.35;;;;;;;5.87;78.11;101469.19;4924857;29;20221;-85
2021/12/16 13:12:55;;;;;;;4.07;3.00;;;;;;;5.90;78.07;101463.91;4928311;28;20267;-85
2021/12/16 13:15:48;;;;;;;5.13;3.22;;;;;;;5.91;78.11;101469.13;4916817;28;20359;-85
2021/12/16 13:24:14;;;;;;;3.63;3.25;;;;;;;5.93;78.38;101459.53;4942994;28;20209;-85
2021/12/16 13:27:04;;;;;;;3.97;3.35;;;;;;;5.89;78.21;101455.25;4942715;28;20248;-86
2021/12/16 13:32:16;;;;;;;4.10;3.70;;;;;;;5.91;78.12;101461.31;4942499;28;20278;-86
2021/12/16 13:35:05;;;;;;;4.55;3.70;;;;;;;5.90;78.70;101462.16;4943741;28;20205;-86
2021/12/16 13:37:35;;;;;;;5.20;3.65;;;;;;;5.90;78.24;101458.69;4943896;28;20205;-86
2021/12/16 13:40:09;;;;;;;3.97;3.60;;;;;;;5.91;78.43;101456.09;4959321;28;20247;-86
2021/12/16 13:42:54;;;;;;;5.60;3.42;;;;;;;5.92;78.41;101457.81;4950374;28;20738;-86
2021/12/16 13:45:26;;;;;;;4.15;3.63;;;;;;;5.92;78.33;101460.41;4953716;28;20531;-87
2021/12/16 13:48:20;;;;;;;5.05;3.17;;;;;;;5.93;78.64;101458.66;4953471;28;20286;-86
2021/12/16 14:07:25;;;;;;;6.32;5.13;;;;;;;6.03;78.78;101454.22;4953533;28;20221;-86
2021/12/16 14:10:07;;;;;;;6.90;5.57;;;;;;;6.03;78.30;101454.22;4954371;28;20228;-85
2021/12/16 14:15:24;;;;;;;6.80;4.47;;;;;;;5.99;78.68;101453.38;4950604;28;20397;-87
2021/12/16 14:23:23;;;;;;;10.95;5.07;;;;;;;5.97;78.58;101455.16;4956841;28;20582;-86
2021/12/16 14:26:18;;;;;;;5.43;4.85;;;;;;;5.96;78.52;101466.47;4955978;28;20247;-87
2021/12/16 14:34:52;;;;;;;8.52;5.63;;;;;;;6.02;78.59;101462.91;4954885;28;20205;-86
2021/12/16 14:50:16;;;;;;;7.22;5.43;;;;;;;6.00;78.87;101462.94;4948912;28;20199;-85
2021/12/16 14:52:42;;;;;;;6.65;4.85;;;;;;;6.04;79.02;101471.56;4954429;28;20219;-85
2021/12/16 14:55:13;;;;;;;7.93;6.50;;;;;;;6.06;78.69;101475.88;4955142;28;20745;-86
2021/12/16 14:57:43;;;;;;;7.22;5.07;;;;;;;6.10;78.64;101471.47;4952520;28;20283;-85
2021/12/16 15:00:32;;;;;;;7.43;5.80;;;;;;;6.12;78.62;101469.72;4951795;28;20469;-87
2021/12/16 15:03:03;;;;;;;5.65;4.47;;;;;;;6.15;78.78;101472.25;4955418;28;20200;-86
2021/12/16 15:05:39;;;;;;;5.85;5.20;;;;;;;6.19;78.95;101474.81;4950950;28;20191;-86
2021/12/16 15:08:14;;;;;;;6.30;5.70;;;;;;;6.22;79.31;101476.50;4952287;28;20236;-86
2021/12/16 15:10:42;;;;;;;5.78;5.18;;;;;;;6.29;78.59;101479.88;4952231;28;20240;-87
2021/12/16 15:13:15;;;;;;;6.70;5.20;;;;;;;6.32;78.77;101478.09;4948919;28;20233;-87